sensor_id;sensor_type;location;lat;lon;timestamp;P1;durP1;ratioP1;P2;durP2;ratioP2
68250;SDS011;55066;51.560;4.642;2023-06-04T00:01:51;6.03;;;1.80;;
68250;SDS011;55066;51.560;4.642;2023-06-04T00:04:19;5.38;;;1.50;;
68250;SDS011;55066;51.560;4.642;2023-06-04T00:06:48;7.53;;;1.30;;
68250;SDS011;55066;51.560;4.642;2023-06-04T00:09:18;3.10;;;1.20;;
68250;SDS011;55066;51.560;4.642;2023-06-04T00:11:43;4.13;;;1.37;;
68250;SDS011;55066;51.560;4.642;2023-06-04T00:14:10;5.10;;;1.50;;
68250;SDS011;55066;51.560;4.642;2023-06-04T00:16:36;3.23;;;1.50;;
68250;SDS011;55066;51.560;4.642;2023-06-04T00:19:02;3.65;;;1.30;;
68250;SDS011;55066;51.560;4.642;2023-06-04T00:21:28;2.90;;;1.20;;
68250;SDS011;55066;51.560;4.642;2023-06-04T00:23:54;6.05;;;1.38;;
68250;SDS011;55066;51.560;4.642;2023-06-04T00:26:20;3.85;;;1.50;;
68250;SDS011;55066;51.560;4.642;2023-06-04T00:28:47;2.88;;;1.60;;
68250;SDS011;55066;51.560;4.642;2023-06-04T00:31:12;4.87;;;1.60;;
68250;SDS011;55066;51.560;4.642;2023-06-04T00:33:41;5.87;;;1.60;;
68250;SDS011;55066;51.560;4.642;2023-06-04T00:36:07;3.28;;;1.50;;
68250;SDS011;55066;51.560;4.642;2023-06-04T00:38:32;4.30;;;1.30;;
68250;SDS011;55066;51.560;4.642;2023-06-04T00:40:59;4.90;;;1.98;;
68250;SDS011;55066;51.560;4.642;2023-06-04T00:43:25;3.30;;;1.60;;
68250;SDS011;55066;51.560;4.642;2023-06-04T00:45:52;3.78;;;1.50;;
68250;SDS011;55066;51.560;4.642;2023-06-04T00:48:19;4.47;;;1.40;;
68250;SDS011;55066;51.560;4.642;2023-06-04T00:50:47;5.90;;;1.42;;
68250;SDS011;55066;51.560;4.642;2023-06-04T00:53:13;7.00;;;1.50;;
68250;SDS011;55066;51.560;4.642;2023-06-04T00:55:39;3.33;;;1.35;;
68250;SDS011;55066;51.560;4.642;2023-06-04T00:58:04;2.70;;;1.17;;
68250;SDS011;55066;51.560;4.642;2023-06-04T01:00:31;4.30;;;1.52;;
68250;SDS011;55066;51.560;4.642;2023-06-04T01:02:57;6.18;;;1.38;;
68250;SDS011;55066;51.560;4.642;2023-06-04T01:05:35;5.80;;;1.50;;
68250;SDS011;55066;51.560;4.642;2023-06-04T01:08:24;4.07;;;1.40;;
68250;SDS011;55066;51.560;4.642;2023-06-04T01:10:53;4.90;;;1.30;;
68250;SDS011;55066;51.560;4.642;2023-06-04T01:13:20;5.20;;;1.60;;
68250;SDS011;55066;51.560;4.642;2023-06-04T01:15:46;4.00;;;1.35;;
68250;SDS011;55066;51.560;4.642;2023-06-04T01:18:13;7.27;;;1.80;;
68250;SDS011;55066;51.560;4.642;2023-06-04T01:20:52;3.35;;;1.55;;
68250;SDS011;55066;51.560;4.642;2023-06-04T01:23:28;4.43;;;1.50;;
68250;SDS011;55066;51.560;4.642;2023-06-04T01:26:00;5.00;;;1.58;;
68250;SDS011;55066;51.560;4.642;2023-06-04T01:28:28;4.43;;;1.60;;
68250;SDS011;55066;51.560;4.642;2023-06-04T01:30:55;3.22;;;1.42;;
68250;SDS011;55066;51.560;4.642;2023-06-04T01:33:23;7.00;;;1.70;;
68250;SDS011;55066;51.560;4.642;2023-06-04T01:35:48;4.15;;;1.60;;
68250;SDS011;55066;51.560;4.642;2023-06-04T01:38:14;3.97;;;1.67;;
68250;SDS011;55066;51.560;4.642;2023-06-04T01:40:40;5.95;;;1.70;;
68250;SDS011;55066;51.560;4.642;2023-06-04T01:43:07;5.50;;;1.50;;
68250;SDS011;55066;51.560;4.642;2023-06-04T01:45:34;6.63;;;1.70;;
68250;SDS011;55066;51.560;4.642;2023-06-04T01:48:05;4.68;;;1.60;;
68250;SDS011;55066;51.560;4.642;2023-06-04T01:50:31;3.90;;;1.70;;
68250;SDS011;55066;51.560;4.642;2023-06-04T01:52:56;4.17;;;1.60;;
68250;SDS011;55066;51.560;4.642;2023-06-04T01:55:22;5.05;;;1.80;;
68250;SDS011;55066;51.560;4.642;2023-06-04T01:57:50;6.50;;;1.70;;
68250;SDS011;55066;51.560;4.642;2023-06-04T02:00:16;3.72;;;1.50;;
68250;SDS011;55066;51.560;4.642;2023-06-04T02:02:45;3.10;;;1.55;;
68250;SDS011;55066;51.560;4.642;2023-06-04T02:05:14;4.80;;;1.73;;
68250;SDS011;55066;51.560;4.642;2023-06-04T02:07:42;5.47;;;1.60;;
68250;SDS011;55066;51.560;4.642;2023-06-04T02:10:18;5.60;;;2.05;;
68250;SDS011;55066;51.560;4.642;2023-06-04T02:12:53;4.10;;;1.83;;
68250;SDS011;55066;51.560;4.642;2023-06-04T02:15:20;4.40;;;1.80;;
68250;SDS011;55066;51.560;4.642;2023-06-04T02:17:48;4.47;;;1.95;;
68250;SDS011;55066;51.560;4.642;2023-06-04T02:20:15;3.30;;;1.70;;
68250;SDS011;55066;51.560;4.642;2023-06-04T02:22:43;4.13;;;1.80;;
68250;SDS011;55066;51.560;4.642;2023-06-04T02:25:08;5.23;;;1.77;;
68250;SDS011;55066;51.560;4.642;2023-06-04T02:27:36;5.63;;;1.83;;
68250;SDS011;55066;51.560;4.642;2023-06-04T02:30:02;3.63;;;1.70;;
68250;SDS011;55066;51.560;4.642;2023-06-04T02:32:28;3.70;;;1.83;;
68250;SDS011;55066;51.560;4.642;2023-06-04T02:34:54;5.00;;;1.80;;
68250;SDS011;55066;51.560;4.642;2023-06-04T02:37:20;8.55;;;2.05;;
68250;SDS011;55066;51.560;4.642;2023-06-04T02:39:46;7.87;;;2.00;;
68250;SDS011;55066;51.560;4.642;2023-06-04T02:42:12;5.47;;;2.08;;
68250;SDS011;55066;51.560;4.642;2023-06-04T02:44:37;4.67;;;1.50;;
68250;SDS011;55066;51.560;4.642;2023-06-04T02:47:02;4.03;;;1.77;;
68250;SDS011;55066;51.560;4.642;2023-06-04T02:49:30;4.13;;;1.75;;
68250;SDS011;55066;51.560;4.642;2023-06-04T02:51:56;3.45;;;1.60;;
68250;SDS011;55066;51.560;4.642;2023-06-04T02:54:21;4.20;;;1.77;;
68250;SDS011;55066;51.560;4.642;2023-06-04T02:56:47;4.17;;;1.90;;
68250;SDS011;55066;51.560;4.642;2023-06-04T02:59:14;6.72;;;2.13;;
68250;SDS011;55066;51.560;4.642;2023-06-04T03:01:41;6.38;;;1.90;;
68250;SDS011;55066;51.560;4.642;2023-06-04T03:04:06;5.37;;;1.73;;
68250;SDS011;55066;51.560;4.642;2023-06-04T03:06:35;4.30;;;1.95;;
68250;SDS011;55066;51.560;4.642;2023-06-04T03:09:04;5.60;;;2.50;;
68250;SDS011;55066;51.560;4.642;2023-06-04T03:11:29;5.03;;;1.80;;
68250;SDS011;55066;51.560;4.642;2023-06-04T03:13:55;3.63;;;1.80;;
68250;SDS011;55066;51.560;4.642;2023-06-04T03:16:20;4.38;;;1.80;;
68250;SDS011;55066;51.560;4.642;2023-06-04T03:18:46;5.93;;;2.00;;
68250;SDS011;55066;51.560;4.642;2023-06-04T03:21:12;4.35;;;1.90;;
68250;SDS011;55066;51.560;4.642;2023-06-04T03:23:38;5.50;;;1.88;;
68250;SDS011;55066;51.560;4.642;2023-06-04T03:26:06;6.88;;;1.75;;
68250;SDS011;55066;51.560;4.642;2023-06-04T03:28:32;3.90;;;1.87;;
68250;SDS011;55066;51.560;4.642;2023-06-04T03:31:03;3.70;;;1.83;;
68250;SDS011;55066;51.560;4.642;2023-06-04T03:33:29;6.72;;;2.10;;
68250;SDS011;55066;51.560;4.642;2023-06-04T03:35:56;6.03;;;2.08;;
68250;SDS011;55066;51.560;4.642;2023-06-04T03:38:25;4.82;;;1.90;;
68250;SDS011;55066;51.560;4.642;2023-06-04T03:40:51;3.73;;;1.80;;
68250;SDS011;55066;51.560;4.642;2023-06-04T03:43:19;5.15;;;1.98;;
68250;SDS011;55066;51.560;4.642;2023-06-04T03:45:45;4.60;;;1.92;;
68250;SDS011;55066;51.560;4.642;2023-06-04T03:48:11;4.85;;;1.75;;
68250;SDS011;55066;51.560;4.642;2023-06-04T03:50:36;4.67;;;1.87;;
68250;SDS011;55066;51.560;4.642;2023-06-04T03:53:03;4.10;;;2.00;;
68250;SDS011;55066;51.560;4.642;2023-06-04T03:55:31;3.97;;;1.70;;
68250;SDS011;55066;51.560;4.642;2023-06-04T03:58:01;4.50;;;2.30;;
68250;SDS011;55066;51.560;4.642;2023-06-04T04:00:28;4.50;;;1.92;;
68250;SDS011;55066;51.560;4.642;2023-06-04T04:02:57;6.25;;;1.92;;
68250;SDS011;55066;51.560;4.642;2023-06-04T04:05:28;4.25;;;1.90;;
68250;SDS011;55066;51.560;4.642;2023-06-04T04:07:54;5.20;;;1.95;;
68250;SDS011;55066;51.560;4.642;2023-06-04T04:10:25;4.10;;;1.80;;
68250;SDS011;55066;51.560;4.642;2023-06-04T04:12:50;4.45;;;2.13;;
68250;SDS011;55066;51.560;4.642;2023-06-04T04:15:18;5.78;;;2.10;;
68250;SDS011;55066;51.560;4.642;2023-06-04T04:17:45;4.93;;;1.80;;
68250;SDS011;55066;51.560;4.642;2023-06-04T04:20:10;4.90;;;1.90;;
68250;SDS011;55066;51.560;4.642;2023-06-04T04:22:41;4.88;;;1.75;;
68250;SDS011;55066;51.560;4.642;2023-06-04T04:25:10;4.70;;;2.03;;
68250;SDS011;55066;51.560;4.642;2023-06-04T04:27:36;4.50;;;1.87;;
68250;SDS011;55066;51.560;4.642;2023-06-04T04:30:07;5.40;;;2.10;;
68250;SDS011;55066;51.560;4.642;2023-06-04T04:32:33;4.57;;;1.90;;
68250;SDS011;55066;51.560;4.642;2023-06-04T04:34:58;4.40;;;1.90;;
68250;SDS011;55066;51.560;4.642;2023-06-04T04:37:33;4.75;;;1.90;;
68250;SDS011;55066;51.560;4.642;2023-06-04T04:40:11;4.43;;;2.03;;
68250;SDS011;55066;51.560;4.642;2023-06-04T04:42:42;5.10;;;1.83;;
68250;SDS011;55066;51.560;4.642;2023-06-04T04:45:09;3.92;;;1.98;;
68250;SDS011;55066;51.560;4.642;2023-06-04T04:47:35;4.80;;;2.05;;
68250;SDS011;55066;51.560;4.642;2023-06-04T04:50:03;5.28;;;1.90;;
68250;SDS011;55066;51.560;4.642;2023-06-04T04:52:29;4.77;;;1.90;;
68250;SDS011;55066;51.560;4.642;2023-06-04T04:54:55;4.90;;;2.00;;
68250;SDS011;55066;51.560;4.642;2023-06-04T04:57:24;5.15;;;1.95;;
68250;SDS011;55066;51.560;4.642;2023-06-04T04:59:51;4.80;;;2.10;;
68250;SDS011;55066;51.560;4.642;2023-06-04T05:02:18;5.15;;;2.03;;
68250;SDS011;55066;51.560;4.642;2023-06-04T05:04:44;4.13;;;1.95;;
68250;SDS011;55066;51.560;4.642;2023-06-04T05:07:12;5.80;;;2.20;;
68250;SDS011;55066;51.560;4.642;2023-06-04T05:09:37;7.07;;;2.00;;
68250;SDS011;55066;51.560;4.642;2023-06-04T05:12:03;5.57;;;1.98;;
68250;SDS011;55066;51.560;4.642;2023-06-04T05:14:29;4.97;;;1.90;;
68250;SDS011;55066;51.560;4.642;2023-06-04T05:16:55;4.60;;;1.77;;
68250;SDS011;55066;51.560;4.642;2023-06-04T05:19:24;4.43;;;1.80;;
68250;SDS011;55066;51.560;4.642;2023-06-04T05:21:50;5.00;;;1.95;;
68250;SDS011;55066;51.560;4.642;2023-06-04T05:24:16;4.45;;;2.10;;
68250;SDS011;55066;51.560;4.642;2023-06-04T05:26:42;4.60;;;1.90;;
68250;SDS011;55066;51.560;4.642;2023-06-04T05:29:13;5.60;;;1.75;;
68250;SDS011;55066;51.560;4.642;2023-06-04T05:31:42;6.25;;;1.83;;
68250;SDS011;55066;51.560;4.642;2023-06-04T05:34:12;6.00;;;2.00;;
68250;SDS011;55066;51.560;4.642;2023-06-04T05:36:41;5.32;;;2.10;;
68250;SDS011;55066;51.560;4.642;2023-06-04T05:39:08;4.45;;;1.77;;
68250;SDS011;55066;51.560;4.642;2023-06-04T05:41:46;4.63;;;1.98;;
68250;SDS011;55066;51.560;4.642;2023-06-04T05:44:13;4.05;;;1.92;;
68250;SDS011;55066;51.560;4.642;2023-06-04T05:46:39;4.28;;;1.90;;
68250;SDS011;55066;51.560;4.642;2023-06-04T05:49:05;4.30;;;1.80;;
68250;SDS011;55066;51.560;4.642;2023-06-04T05:51:31;4.83;;;1.93;;
68250;SDS011;55066;51.560;4.642;2023-06-04T05:53:57;3.90;;;1.80;;
68250;SDS011;55066;51.560;4.642;2023-06-04T05:56:24;4.63;;;1.85;;
68250;SDS011;55066;51.560;4.642;2023-06-04T05:58:54;4.82;;;1.90;;
68250;SDS011;55066;51.560;4.642;2023-06-04T06:01:23;5.53;;;1.98;;
68250;SDS011;55066;51.560;4.642;2023-06-04T06:03:50;4.30;;;1.85;;
68250;SDS011;55066;51.560;4.642;2023-06-04T06:06:16;5.65;;;1.90;;
68250;SDS011;55066;51.560;4.642;2023-06-04T06:08:43;4.43;;;1.83;;
68250;SDS011;55066;51.560;4.642;2023-06-04T06:11:08;3.87;;;1.90;;
68250;SDS011;55066;51.560;4.642;2023-06-04T06:13:34;4.27;;;1.70;;
68250;SDS011;55066;51.560;4.642;2023-06-04T06:15:59;6.15;;;2.10;;
68250;SDS011;55066;51.560;4.642;2023-06-04T06:18:28;4.32;;;2.00;;
68250;SDS011;55066;51.560;4.642;2023-06-04T06:20:53;6.30;;;1.60;;
68250;SDS011;55066;51.560;4.642;2023-06-04T06:23:20;4.60;;;1.70;;
68250;SDS011;55066;51.560;4.642;2023-06-04T06:25:48;5.13;;;1.90;;
68250;SDS011;55066;51.560;4.642;2023-06-04T06:28:20;4.03;;;1.90;;
68250;SDS011;55066;51.560;4.642;2023-06-04T06:30:50;4.78;;;1.90;;
68250;SDS011;55066;51.560;4.642;2023-06-04T06:33:15;8.10;;;1.95;;
68250;SDS011;55066;51.560;4.642;2023-06-04T06:35:41;5.80;;;1.90;;
68250;SDS011;55066;51.560;4.642;2023-06-04T06:38:06;4.65;;;1.85;;
68250;SDS011;55066;51.560;4.642;2023-06-04T06:40:32;5.47;;;1.90;;
68250;SDS011;55066;51.560;4.642;2023-06-04T06:42:57;4.13;;;2.20;;
68250;SDS011;55066;51.560;4.642;2023-06-04T06:45:23;5.53;;;1.77;;
68250;SDS011;55066;51.560;4.642;2023-06-04T06:47:50;6.13;;;1.90;;
68250;SDS011;55066;51.560;4.642;2023-06-04T06:50:15;3.73;;;1.70;;
68250;SDS011;55066;51.560;4.642;2023-06-04T06:52:41;5.90;;;1.80;;
68250;SDS011;55066;51.560;4.642;2023-06-04T06:55:06;5.13;;;1.98;;
68250;SDS011;55066;51.560;4.642;2023-06-04T06:57:32;4.73;;;1.60;;
68250;SDS011;55066;51.560;4.642;2023-06-04T06:59:58;4.63;;;1.98;;
68250;SDS011;55066;51.560;4.642;2023-06-04T07:02:24;5.67;;;1.87;;
68250;SDS011;55066;51.560;4.642;2023-06-04T07:04:50;3.88;;;1.52;;
68250;SDS011;55066;51.560;4.642;2023-06-04T07:07:16;5.47;;;1.80;;
68250;SDS011;55066;51.560;4.642;2023-06-04T07:09:42;5.47;;;1.90;;
68250;SDS011;55066;51.560;4.642;2023-06-04T07:12:07;4.68;;;1.92;;
68250;SDS011;55066;51.560;4.642;2023-06-04T07:14:33;4.73;;;1.80;;
68250;SDS011;55066;51.560;4.642;2023-06-04T07:16:58;4.67;;;1.90;;
68250;SDS011;55066;51.560;4.642;2023-06-04T07:19:24;5.68;;;1.83;;
68250;SDS011;55066;51.560;4.642;2023-06-04T07:21:49;3.23;;;1.70;;
68250;SDS011;55066;51.560;4.642;2023-06-04T07:24:16;4.82;;;1.98;;
68250;SDS011;55066;51.560;4.642;2023-06-04T07:26:41;4.93;;;2.17;;
68250;SDS011;55066;51.560;4.642;2023-06-04T07:29:07;5.17;;;1.50;;
68250;SDS011;55066;51.560;4.642;2023-06-04T07:31:32;4.17;;;1.70;;
68250;SDS011;55066;51.560;4.642;2023-06-04T07:33:57;5.17;;;1.80;;
68250;SDS011;55066;51.560;4.642;2023-06-04T07:36:24;4.85;;;2.00;;
68250;SDS011;55066;51.560;4.642;2023-06-04T07:38:51;4.72;;;1.90;;
68250;SDS011;55066;51.560;4.642;2023-06-04T07:41:18;3.85;;;1.83;;
68250;SDS011;55066;51.560;4.642;2023-06-04T07:43:43;3.40;;;1.70;;
68250;SDS011;55066;51.560;4.642;2023-06-04T07:46:09;5.88;;;1.80;;
68250;SDS011;55066;51.560;4.642;2023-06-04T07:48:35;4.97;;;2.20;;
68250;SDS011;55066;51.560;4.642;2023-06-04T07:51:00;4.97;;;2.00;;
68250;SDS011;55066;51.560;4.642;2023-06-04T07:53:29;4.43;;;1.80;;
68250;SDS011;55066;51.560;4.642;2023-06-04T07:55:55;4.32;;;1.88;;
68250;SDS011;55066;51.560;4.642;2023-06-04T07:58:21;7.43;;;2.38;;
68250;SDS011;55066;51.560;4.642;2023-06-04T08:00:47;6.70;;;1.80;;
68250;SDS011;55066;51.560;4.642;2023-06-04T08:03:12;4.23;;;1.80;;
68250;SDS011;55066;51.560;4.642;2023-06-04T08:05:40;5.88;;;2.10;;
68250;SDS011;55066;51.560;4.642;2023-06-04T08:08:06;5.43;;;1.90;;
68250;SDS011;55066;51.560;4.642;2023-06-04T08:10:31;5.30;;;2.10;;
68250;SDS011;55066;51.560;4.642;2023-06-04T08:12:57;3.87;;;1.87;;
68250;SDS011;55066;51.560;4.642;2023-06-04T08:15:24;4.88;;;2.00;;
68250;SDS011;55066;51.560;4.642;2023-06-04T08:17:49;5.97;;;1.80;;
68250;SDS011;55066;51.560;4.642;2023-06-04T08:20:15;5.40;;;1.97;;
68250;SDS011;55066;51.560;4.642;2023-06-04T08:22:40;5.13;;;1.77;;
68250;SDS011;55066;51.560;4.642;2023-06-04T08:25:06;4.43;;;1.90;;
68250;SDS011;55066;51.560;4.642;2023-06-04T08:27:33;4.78;;;1.70;;
68250;SDS011;55066;51.560;4.642;2023-06-04T08:29:59;3.17;;;1.63;;
68250;SDS011;55066;51.560;4.642;2023-06-04T08:32:25;4.27;;;1.73;;
68250;SDS011;55066;51.560;4.642;2023-06-04T08:34:50;4.40;;;1.67;;
68250;SDS011;55066;51.560;4.642;2023-06-04T08:37:17;3.47;;;1.70;;
68250;SDS011;55066;51.560;4.642;2023-06-04T08:39:43;3.83;;;1.60;;
68250;SDS011;55066;51.560;4.642;2023-06-04T08:42:09;4.40;;;1.80;;
68250;SDS011;55066;51.560;4.642;2023-06-04T08:44:47;3.63;;;1.88;;
68250;SDS011;55066;51.560;4.642;2023-06-04T08:47:16;4.15;;;1.90;;
68250;SDS011;55066;51.560;4.642;2023-06-04T08:49:44;3.93;;;1.60;;
68250;SDS011;55066;51.560;4.642;2023-06-04T08:52:16;7.70;;;1.50;;
68250;SDS011;55066;51.560;4.642;2023-06-04T08:54:42;7.07;;;1.50;;
68250;SDS011;55066;51.560;4.642;2023-06-04T08:57:08;6.23;;;1.80;;
68250;SDS011;55066;51.560;4.642;2023-06-04T08:59:34;4.68;;;1.63;;
68250;SDS011;55066;51.560;4.642;2023-06-04T09:02:00;3.35;;;1.48;;
68250;SDS011;55066;51.560;4.642;2023-06-04T09:04:27;6.47;;;1.60;;
68250;SDS011;55066;51.560;4.642;2023-06-04T09:06:54;5.38;;;1.83;;
68250;SDS011;55066;51.560;4.642;2023-06-04T09:09:20;5.13;;;1.60;;
68250;SDS011;55066;51.560;4.642;2023-06-04T09:11:54;4.63;;;1.40;;
68250;SDS011;55066;51.560;4.642;2023-06-04T09:14:22;5.35;;;1.60;;
68250;SDS011;55066;51.560;4.642;2023-06-04T09:16:49;3.10;;;1.30;;
68250;SDS011;55066;51.560;4.642;2023-06-04T09:19:16;4.10;;;1.70;;
68250;SDS011;55066;51.560;4.642;2023-06-04T09:21:52;3.10;;;1.40;;
68250;SDS011;55066;51.560;4.642;2023-06-04T09:24:22;5.93;;;1.40;;
68250;SDS011;55066;51.560;4.642;2023-06-04T09:26:49;4.53;;;1.33;;
68250;SDS011;55066;51.560;4.642;2023-06-04T09:29:15;2.92;;;1.40;;
68250;SDS011;55066;51.560;4.642;2023-06-04T09:31:41;5.85;;;1.60;;
68250;SDS011;55066;51.560;4.642;2023-06-04T09:34:08;4.00;;;1.40;;
68250;SDS011;55066;51.560;4.642;2023-06-04T09:36:33;2.38;;;1.13;;
68250;SDS011;55066;51.560;4.642;2023-06-04T09:39:01;9.10;;;1.40;;
68250;SDS011;55066;51.560;4.642;2023-06-04T09:41:40;3.30;;;1.40;;
68250;SDS011;55066;51.560;4.642;2023-06-04T09:44:07;9.07;;;1.50;;
68250;SDS011;55066;51.560;4.642;2023-06-04T09:46:35;3.92;;;1.42;;
68250;SDS011;55066;51.560;4.642;2023-06-04T09:49:02;3.00;;;1.40;;
68250;SDS011;55066;51.560;4.642;2023-06-04T09:51:29;3.47;;;1.20;;
68250;SDS011;55066;51.560;4.642;2023-06-04T09:53:59;6.13;;;1.30;;
68250;SDS011;55066;51.560;4.642;2023-06-04T09:56:38;4.47;;;1.50;;
68250;SDS011;55066;51.560;4.642;2023-06-04T09:59:04;6.47;;;1.20;;
68250;SDS011;55066;51.560;4.642;2023-06-04T10:01:32;3.03;;;1.25;;
68250;SDS011;55066;51.560;4.642;2023-06-04T10:04:03;7.00;;;1.70;;
68250;SDS011;55066;51.560;4.642;2023-06-04T10:06:36;2.55;;;1.00;;
68250;SDS011;55066;51.560;4.642;2023-06-04T10:09:08;2.22;;;1.00;;
68250;SDS011;55066;51.560;4.642;2023-06-04T10:11:35;2.67;;;1.05;;
68250;SDS011;55066;51.560;4.642;2023-06-04T10:14:08;4.35;;;1.20;;
68250;SDS011;55066;51.560;4.642;2023-06-04T10:16:39;1.83;;;0.90;;
68250;SDS011;55066;51.560;4.642;2023-06-04T10:19:07;6.25;;;1.10;;
68250;SDS011;55066;51.560;4.642;2023-06-04T10:21:34;2.58;;;1.05;;
68250;SDS011;55066;51.560;4.642;2023-06-04T10:24:01;2.95;;;1.45;;
68250;SDS011;55066;51.560;4.642;2023-06-04T10:26:29;4.30;;;0.90;;
68250;SDS011;55066;51.560;4.642;2023-06-04T10:28:57;2.30;;;1.00;;
68250;SDS011;55066;51.560;4.642;2023-06-04T10:31:23;3.70;;;1.00;;
68250;SDS011;55066;51.560;4.642;2023-06-04T10:33:53;2.33;;;0.95;;
68250;SDS011;55066;51.560;4.642;2023-06-04T10:36:21;4.23;;;1.03;;
68250;SDS011;55066;51.560;4.642;2023-06-04T10:38:50;1.90;;;1.00;;
68250;SDS011;55066;51.560;4.642;2023-06-04T10:41:20;2.83;;;0.90;;
68250;SDS011;55066;51.560;4.642;2023-06-04T10:43:48;2.75;;;1.50;;
68250;SDS011;55066;51.560;4.642;2023-06-04T10:46:17;2.28;;;1.08;;
68250;SDS011;55066;51.560;4.642;2023-06-04T10:48:50;3.27;;;1.30;;
68250;SDS011;55066;51.560;4.642;2023-06-04T10:51:30;5.57;;;1.00;;
68250;SDS011;55066;51.560;4.642;2023-06-04T10:54:00;2.63;;;1.10;;
68250;SDS011;55066;51.560;4.642;2023-06-04T10:56:31;2.63;;;1.00;;
68250;SDS011;55066;51.560;4.642;2023-06-04T10:58:59;2.55;;;1.20;;
68250;SDS011;55066;51.560;4.642;2023-06-04T11:01:28;2.40;;;0.97;;
68250;SDS011;55066;51.560;4.642;2023-06-04T11:03:55;5.18;;;1.13;;
68250;SDS011;55066;51.560;4.642;2023-06-04T11:06:21;2.13;;;0.97;;
68250;SDS011;55066;51.560;4.642;2023-06-04T11:08:47;4.20;;;1.10;;
68250;SDS011;55066;51.560;4.642;2023-06-04T11:11:14;3.05;;;1.20;;
68250;SDS011;55066;51.560;4.642;2023-06-04T11:13:44;2.83;;;1.10;;
68250;SDS011;55066;51.560;4.642;2023-06-04T11:16:14;2.53;;;1.15;;
68250;SDS011;55066;51.560;4.642;2023-06-04T11:18:40;3.22;;;1.15;;
68250;SDS011;55066;51.560;4.642;2023-06-04T11:21:06;2.83;;;1.20;;
68250;SDS011;55066;51.560;4.642;2023-06-04T11:23:32;4.07;;;1.10;;
68250;SDS011;55066;51.560;4.642;2023-06-04T11:25:58;2.40;;;1.20;;
68250;SDS011;55066;51.560;4.642;2023-06-04T11:28:24;2.83;;;1.30;;
68250;SDS011;55066;51.560;4.642;2023-06-04T11:30:59;3.63;;;1.20;;
68250;SDS011;55066;51.560;4.642;2023-06-04T11:33:30;5.20;;;1.10;;
68250;SDS011;55066;51.560;4.642;2023-06-04T11:36:06;4.10;;;1.23;;
68250;SDS011;55066;51.560;4.642;2023-06-04T11:38:33;4.32;;;1.20;;
68250;SDS011;55066;51.560;4.642;2023-06-04T11:40:59;34.77;;;2.80;;
68250;SDS011;55066;51.560;4.642;2023-06-04T11:43:25;9.00;;;1.63;;
68250;SDS011;55066;51.560;4.642;2023-06-04T11:45:50;20.67;;;2.67;;
68250;SDS011;55066;51.560;4.642;2023-06-04T11:48:16;11.90;;;1.58;;
68250;SDS011;55066;51.560;4.642;2023-06-04T11:50:43;4.93;;;1.53;;
68250;SDS011;55066;51.560;4.642;2023-06-04T11:53:09;4.93;;;1.17;;
68250;SDS011;55066;51.560;4.642;2023-06-04T11:55:36;3.08;;;1.20;;
68250;SDS011;55066;51.560;4.642;2023-06-04T11:58:03;3.17;;;1.00;;
68250;SDS011;55066;51.560;4.642;2023-06-04T12:00:29;3.83;;;1.30;;
68250;SDS011;55066;51.560;4.642;2023-06-04T12:02:55;6.75;;;1.20;;
68250;SDS011;55066;51.560;4.642;2023-06-04T12:05:22;2.45;;;1.20;;
68250;SDS011;55066;51.560;4.642;2023-06-04T12:07:48;2.53;;;1.25;;
68250;SDS011;55066;51.560;4.642;2023-06-04T12:10:20;4.10;;;1.23;;
68250;SDS011;55066;51.560;4.642;2023-06-04T12:12:46;3.85;;;1.50;;
68250;SDS011;55066;51.560;4.642;2023-06-04T12:15:19;3.28;;;1.30;;
68250;SDS011;55066;51.560;4.642;2023-06-04T12:17:48;2.50;;;1.27;;
68250;SDS011;55066;51.560;4.642;2023-06-04T12:20:33;3.60;;;1.23;;
68250;SDS011;55066;51.560;4.642;2023-06-04T12:23:03;2.60;;;1.02;;
68250;SDS011;55066;51.560;4.642;2023-06-04T12:25:31;4.05;;;1.40;;
68250;SDS011;55066;51.560;4.642;2023-06-04T12:27:57;6.60;;;1.60;;
68250;SDS011;55066;51.560;4.642;2023-06-04T12:30:23;2.20;;;1.13;;
68250;SDS011;55066;51.560;4.642;2023-06-04T12:33:00;3.35;;;1.30;;
68250;SDS011;55066;51.560;4.642;2023-06-04T12:35:26;3.20;;;1.73;;
68250;SDS011;55066;51.560;4.642;2023-06-04T12:37:52;2.80;;;1.10;;
68250;SDS011;55066;51.560;4.642;2023-06-04T12:40:18;3.50;;;1.13;;
68250;SDS011;55066;51.560;4.642;2023-06-04T12:42:43;3.00;;;1.33;;
68250;SDS011;55066;51.560;4.642;2023-06-04T12:45:09;2.90;;;1.20;;
68250;SDS011;55066;51.560;4.642;2023-06-04T12:47:35;2.65;;;1.30;;
68250;SDS011;55066;51.560;4.642;2023-06-04T12:50:00;5.17;;;1.20;;
68250;SDS011;55066;51.560;4.642;2023-06-04T12:52:26;9.77;;;1.93;;
68250;SDS011;55066;51.560;4.642;2023-06-04T12:54:51;8.50;;;1.70;;
68250;SDS011;55066;51.560;4.642;2023-06-04T12:57:17;37.57;;;3.17;;
68250;SDS011;55066;51.560;4.642;2023-06-04T12:59:42;9.50;;;1.87;;
68250;SDS011;55066;51.560;4.642;2023-06-04T13:02:08;5.77;;;1.33;;
68250;SDS011;55066;51.560;4.642;2023-06-04T13:04:33;3.07;;;1.20;;
68250;SDS011;55066;51.560;4.642;2023-06-04T13:06:58;6.50;;;1.40;;
68250;SDS011;55066;51.560;4.642;2023-06-04T13:09:25;3.23;;;1.10;;
68250;SDS011;55066;51.560;4.642;2023-06-04T13:11:53;3.78;;;1.50;;
68250;SDS011;55066;51.560;4.642;2023-06-04T13:14:20;2.85;;;1.30;;
68250;SDS011;55066;51.560;4.642;2023-06-04T13:16:45;5.17;;;1.30;;
68250;SDS011;55066;51.560;4.642;2023-06-04T13:19:13;4.05;;;1.33;;
68250;SDS011;55066;51.560;4.642;2023-06-04T13:21:39;4.63;;;1.47;;
68250;SDS011;55066;51.560;4.642;2023-06-04T13:24:04;3.93;;;1.13;;
68250;SDS011;55066;51.560;4.642;2023-06-04T13:26:30;4.00;;;1.20;;
68250;SDS011;55066;51.560;4.642;2023-06-04T13:29:04;3.67;;;1.20;;
68250;SDS011;55066;51.560;4.642;2023-06-04T13:31:30;2.65;;;1.20;;
68250;SDS011;55066;51.560;4.642;2023-06-04T13:33:55;4.43;;;1.40;;
68250;SDS011;55066;51.560;4.642;2023-06-04T13:36:20;4.03;;;1.35;;
68250;SDS011;55066;51.560;4.642;2023-06-04T13:38:59;3.50;;;1.27;;
68250;SDS011;55066;51.560;4.642;2023-06-04T13:41:24;6.93;;;1.42;;
68250;SDS011;55066;51.560;4.642;2023-06-04T13:43:51;2.88;;;1.40;;
68250;SDS011;55066;51.560;4.642;2023-06-04T13:46:17;3.47;;;1.40;;
68250;SDS011;55066;51.560;4.642;2023-06-04T13:48:44;2.95;;;1.30;;
68250;SDS011;55066;51.560;4.642;2023-06-04T13:51:09;4.17;;;1.50;;
68250;SDS011;55066;51.560;4.642;2023-06-04T13:53:37;9.13;;;1.63;;
68250;SDS011;55066;51.560;4.642;2023-06-04T13:56:03;4.00;;;1.23;;
68250;SDS011;55066;51.560;4.642;2023-06-04T13:58:28;3.13;;;1.30;;
68250;SDS011;55066;51.560;4.642;2023-06-04T14:00:54;4.60;;;1.20;;
68250;SDS011;55066;51.560;4.642;2023-06-04T14:03:19;3.77;;;1.60;;
68250;SDS011;55066;51.560;4.642;2023-06-04T14:05:45;3.97;;;1.40;;
68250;SDS011;55066;51.560;4.642;2023-06-04T14:08:10;4.07;;;1.40;;
68250;SDS011;55066;51.560;4.642;2023-06-04T14:10:37;4.97;;;1.50;;
68250;SDS011;55066;51.560;4.642;2023-06-04T14:13:06;2.72;;;1.40;;
68250;SDS011;55066;51.560;4.642;2023-06-04T14:15:32;3.47;;;1.33;;
68250;SDS011;55066;51.560;4.642;2023-06-04T14:17:58;2.83;;;1.20;;
68250;SDS011;55066;51.560;4.642;2023-06-04T14:20:23;2.67;;;1.40;;
68250;SDS011;55066;51.560;4.642;2023-06-04T14:22:49;6.75;;;1.50;;
68250;SDS011;55066;51.560;4.642;2023-06-04T14:25:14;4.97;;;1.40;;
68250;SDS011;55066;51.560;4.642;2023-06-04T14:27:40;2.43;;;1.20;;
68250;SDS011;55066;51.560;4.642;2023-06-04T14:30:05;3.97;;;1.47;;
68250;SDS011;55066;51.560;4.642;2023-06-04T14:32:32;2.70;;;1.30;;
68250;SDS011;55066;51.560;4.642;2023-06-04T14:34:59;4.90;;;1.48;;
68250;SDS011;55066;51.560;4.642;2023-06-04T14:37:26;3.20;;;1.30;;
68250;SDS011;55066;51.560;4.642;2023-06-04T14:39:51;3.80;;;1.30;;
68250;SDS011;55066;51.560;4.642;2023-06-04T14:42:17;4.33;;;1.50;;
68250;SDS011;55066;51.560;4.642;2023-06-04T14:44:45;3.75;;;1.35;;
68250;SDS011;55066;51.560;4.642;2023-06-04T14:47:10;3.75;;;1.48;;
68250;SDS011;55066;51.560;4.642;2023-06-04T14:49:37;2.80;;;1.50;;